sensor_id;sensor_type;location;lat;lon;timestamp;P1;durP1;ratioP1;P2;durP2;ratioP2
78013;SDS011;67222;50.182;8.734;2023-04-25T04:31:34;9.88;;;4.20;;
78013;SDS011;67222;50.182;8.734;2023-04-25T04:34:00;8.60;;;4.38;;
78013;SDS011;67222;50.182;8.734;2023-04-25T04:36:26;9.95;;;3.60;;
78013;SDS011;67222;50.182;8.734;2023-04-25T04:38:52;9.95;;;4.03;;
78013;SDS011;67222;50.182;8.734;2023-04-25T04:41:18;8.52;;;3.92;;
78013;SDS011;67222;50.182;8.734;2023-04-25T04:43:44;8.40;;;3.65;;
78013;SDS011;67222;50.182;8.734;2023-04-25T04:46:09;9.93;;;4.55;;
78013;SDS011;67222;50.182;8.734;2023-04-25T04:48:35;10.20;;;3.72;;
78013;SDS011;67222;50.182;8.734;2023-04-25T04:51:00;10.57;;;3.75;;
78013;SDS011;67222;50.182;8.734;2023-04-25T04:53:26;8.35;;;3.55;;
78013;SDS011;67222;50.182;8.734;2023-04-25T04:55:52;9.70;;;4.07;;
78013;SDS011;67222;50.182;8.734;2023-04-25T04:58:17;10.98;;;3.85;;
78013;SDS011;67222;50.182;8.734;2023-04-25T05:00:43;8.50;;;4.20;;
78013;SDS011;67222;50.182;8.734;2023-04-25T05:03:08;10.30;;;4.35;;
78013;SDS011;67222;50.182;8.734;2023-04-25T05:05:34;10.60;;;4.27;;
78013;SDS011;67222;50.182;8.734;2023-04-25T05:07:59;10.68;;;4.68;;
78013;SDS011;67222;50.182;8.734;2023-04-25T05:10:25;9.70;;;4.05;;
78013;SDS011;67222;50.182;8.734;2023-04-25T05:12:50;12.02;;;4.35;;
78013;SDS011;67222;50.182;8.734;2023-04-25T05:15:15;12.10;;;4.13;;
78013;SDS011;67222;50.182;8.734;2023-04-25T05:17:41;9.77;;;4.25;;
78013;SDS011;67222;50.182;8.734;2023-04-25T05:20:07;9.13;;;4.20;;
78013;SDS011;67222;50.182;8.734;2023-04-25T05:22:34;9.00;;;4.35;;
78013;SDS011;67222;50.182;8.734;2023-04-25T05:24:59;11.70;;;3.97;;
78013;SDS011;67222;50.182;8.734;2023-04-25T05:27:24;9.90;;;3.97;;
78013;SDS011;67222;50.182;8.734;2023-04-25T05:29:50;9.17;;;3.77;;
78013;SDS011;67222;50.182;8.734;2023-04-25T05:32:16;7.90;;;3.53;;
78013;SDS011;67222;50.182;8.734;2023-04-25T05:34:41;7.72;;;3.80;;
78013;SDS011;67222;50.182;8.734;2023-04-25T05:37:06;8.77;;;4.57;;
78013;SDS011;67222;50.182;8.734;2023-04-25T05:39:32;7.43;;;4.07;;
78013;SDS011;67222;50.182;8.734;2023-04-25T05:41:57;9.80;;;3.88;;
78013;SDS011;67222;50.182;8.734;2023-04-25T05:44:23;12.57;;;4.23;;
78013;SDS011;67222;50.182;8.734;2023-04-25T05:46:48;7.67;;;3.50;;
78013;SDS011;67222;50.182;8.734;2023-04-25T05:49:13;7.80;;;3.25;;
78013;SDS011;67222;50.182;8.734;2023-04-25T05:51:39;8.75;;;3.88;;
78013;SDS011;67222;50.182;8.734;2023-04-25T05:54:05;6.55;;;3.28;;
78013;SDS011;67222;50.182;8.734;2023-04-25T05:56:30;9.77;;;3.43;;
78013;SDS011;67222;50.182;8.734;2023-04-25T05:58:55;7.40;;;3.80;;
78013;SDS011;67222;50.182;8.734;2023-04-25T06:01:21;8.52;;;2.97;;
78013;SDS011;67222;50.182;8.734;2023-04-25T06:03:47;10.43;;;3.65;;
78013;SDS011;67222;50.182;8.734;2023-04-25T06:06:13;7.97;;;3.37;;
78013;SDS011;67222;50.182;8.734;2023-04-25T06:08:38;9.05;;;3.35;;
78013;SDS011;67222;50.182;8.734;2023-04-25T06:11:03;7.77;;;3.03;;
78013;SDS011;67222;50.182;8.734;2023-04-25T06:13:29;8.57;;;3.13;;
78013;SDS011;67222;50.182;8.734;2023-04-25T06:15:55;6.15;;;2.78;;
78013;SDS011;67222;50.182;8.734;2023-04-25T06:18:20;6.57;;;3.00;;
78013;SDS011;67222;50.182;8.734;2023-04-25T06:20:45;6.00;;;3.10;;
78013;SDS011;67222;50.182;8.734;2023-04-25T06:23:11;6.30;;;2.97;;
78013;SDS011;67222;50.182;8.734;2023-04-25T06:25:36;7.30;;;2.50;;
78013;SDS011;67222;50.182;8.734;2023-04-25T06:28:01;6.13;;;2.80;;
78013;SDS011;67222;50.182;8.734;2023-04-25T06:30:27;6.82;;;3.15;;
78013;SDS011;67222;50.182;8.734;2023-04-25T06:32:52;4.22;;;2.15;;
78013;SDS011;67222;50.182;8.734;2023-04-25T06:35:18;8.68;;;2.97;;
78013;SDS011;67222;50.182;8.734;2023-04-25T06:37:43;9.48;;;2.95;;
78013;SDS011;67222;50.182;8.734;2023-04-25T06:40:09;6.38;;;2.95;;
78013;SDS011;67222;50.182;8.734;2023-04-25T06:42:35;12.23;;;3.30;;
78013;SDS011;67222;50.182;8.734;2023-04-25T06:45:00;5.20;;;2.17;;
78013;SDS011;67222;50.182;8.734;2023-04-25T06:47:26;8.02;;;2.50;;
78013;SDS011;67222;50.182;8.734;2023-04-25T06:49:51;5.17;;;2.33;;
78013;SDS011;67222;50.182;8.734;2023-04-25T06:52:16;4.90;;;2.10;;
78013;SDS011;67222;50.182;8.734;2023-04-25T06:54:43;5.10;;;2.22;;
78013;SDS011;67222;50.182;8.734;2023-04-25T06:57:08;6.22;;;2.25;;
78013;SDS011;67222;50.182;8.734;2023-04-25T06:59:33;4.78;;;2.08;;
78013;SDS011;67222;50.182;8.734;2023-04-25T07:01:59;5.05;;;2.25;;
78013;SDS011;67222;50.182;8.734;2023-04-25T07:04:24;6.88;;;2.20;;
78013;SDS011;67222;50.182;8.734;2023-04-25T07:06:50;4.53;;;1.90;;
78013;SDS011;67222;50.182;8.734;2023-04-25T07:09:15;4.55;;;2.03;;
78013;SDS011;67222;50.182;8.734;2023-04-25T07:11:40;6.13;;;2.17;;
78013;SDS011;67222;50.182;8.734;2023-04-25T07:14:05;4.87;;;2.77;;
78013;SDS011;67222;50.182;8.734;2023-04-25T07:16:31;4.78;;;2.20;;
78013;SDS011;67222;50.182;8.734;2023-04-25T07:18:56;7.00;;;2.30;;
78013;SDS011;67222;50.182;8.734;2023-04-25T07:21:21;5.60;;;2.53;;
78013;SDS011;67222;50.182;8.734;2023-04-25T07:23:47;5.17;;;2.00;;
78013;SDS011;67222;50.182;8.734;2023-04-25T07:26:12;7.80;;;2.50;;
78013;SDS011;67222;50.182;8.734;2023-04-25T07:28:38;5.03;;;2.15;;
78013;SDS011;67222;50.182;8.734;2023-04-25T07:31:03;5.70;;;2.15;;
78013;SDS011;67222;50.182;8.734;2023-04-25T07:33:29;5.97;;;2.17;;
78013;SDS011;67222;50.182;8.734;2023-04-25T07:35:54;6.22;;;2.17;;
78013;SDS011;67222;50.182;8.734;2023-04-25T07:38:20;6.78;;;2.38;;
78013;SDS011;67222;50.182;8.734;2023-04-25T07:40:47;9.37;;;2.63;;
78013;SDS011;67222;50.182;8.734;2023-04-25T07:43:13;6.47;;;2.30;;
78013;SDS011;67222;50.182;8.734;2023-04-25T07:45:41;4.45;;;2.10;;
78013;SDS011;67222;50.182;8.734;2023-04-25T07:48:07;5.03;;;2.13;;
78013;SDS011;67222;50.182;8.734;2023-04-25T07:50:32;6.50;;;2.15;;
78013;SDS011;67222;50.182;8.734;2023-04-25T07:52:58;5.03;;;2.10;;
78013;SDS011;67222;50.182;8.734;2023-04-25T07:55:23;5.70;;;2.10;;
78013;SDS011;67222;50.182;8.734;2023-04-25T07:57:48;4.33;;;2.07;;
78013;SDS011;67222;50.182;8.734;2023-04-25T08:00:14;3.83;;;2.08;;
78013;SDS011;67222;50.182;8.734;2023-04-25T08:02:40;6.65;;;2.13;;
78013;SDS011;67222;50.182;8.734;2023-04-25T08:05:05;4.45;;;1.90;;
78013;SDS011;67222;50.182;8.734;2023-04-25T08:07:33;5.68;;;2.13;;
78013;SDS011;67222;50.182;8.734;2023-04-25T08:09:58;5.07;;;2.20;;
78013;SDS011;67222;50.182;8.734;2023-04-25T08:12:24;4.63;;;1.97;;
78013;SDS011;67222;50.182;8.734;2023-04-25T08:14:49;4.90;;;2.40;;
78013;SDS011;67222;50.182;8.734;2023-04-25T08:17:15;3.90;;;1.92;;
78013;SDS011;67222;50.182;8.734;2023-04-25T08:19:40;3.83;;;2.20;;
78013;SDS011;67222;50.182;8.734;2023-04-25T08:22:06;4.35;;;1.88;;
78013;SDS011;67222;50.182;8.734;2023-04-25T08:24:31;6.15;;;2.55;;
78013;SDS011;67222;50.182;8.734;2023-04-25T08:26:56;5.77;;;2.37;;
78013;SDS011;67222;50.182;8.734;2023-04-25T08:29:23;4.88;;;2.40;;
78013;SDS011;67222;50.182;8.734;2023-04-25T08:31:50;7.05;;;2.58;;
78013;SDS011;67222;50.182;8.734;2023-04-25T08:34:17;5.15;;;2.47;;
78013;SDS011;67222;50.182;8.734;2023-04-25T08:36:43;5.13;;;2.20;;
78013;SDS011;67222;50.182;8.734;2023-04-25T08:39:08;4.82;;;2.42;;
78013;SDS011;67222;50.182;8.734;2023-04-25T08:41:34;4.25;;;2.30;;
78013;SDS011;67222;50.182;8.734;2023-04-25T08:44:01;4.00;;;2.30;;
78013;SDS011;67222;50.182;8.734;2023-04-25T08:46:28;4.88;;;2.65;;
78013;SDS011;67222;50.182;8.734;2023-04-25T08:48:56;4.57;;;2.20;;
78013;SDS011;67222;50.182;8.734;2023-04-25T08:51:25;5.38;;;2.22;;
78013;SDS011;67222;50.182;8.734;2023-04-25T08:53:56;5.18;;;2.42;;
78013;SDS011;67222;50.182;8.734;2023-04-25T08:56:34;6.03;;;2.20;;
78013;SDS011;67222;50.182;8.734;2023-04-25T08:58:59;4.25;;;2.35;;
78013;SDS011;67222;50.182;8.734;2023-04-25T09:01:26;5.35;;;2.67;;
78013;SDS011;67222;50.182;8.734;2023-04-25T09:03:52;4.95;;;2.33;;
78013;SDS011;67222;50.182;8.734;2023-04-25T09:06:18;5.53;;;2.40;;
78013;SDS011;67222;50.182;8.734;2023-04-25T09:08:44;6.72;;;2.55;;
78013;SDS011;67222;50.182;8.734;2023-04-25T09:11:09;5.07;;;2.50;;
78013;SDS011;67222;50.182;8.734;2023-04-25T09:13:35;6.35;;;2.55;;
78013;SDS011;67222;50.182;8.734;2023-04-25T09:16:00;5.45;;;2.97;;
78013;SDS011;67222;50.182;8.734;2023-04-25T09:18:30;5.53;;;2.53;;
78013;SDS011;67222;50.182;8.734;2023-04-25T09:23:44;6.38;;;3.00;;
78013;SDS011;67222;50.182;8.734;2023-04-25T09:26:13;5.45;;;2.60;;
78013;SDS011;67222;50.182;8.734;2023-04-25T09:28:40;4.32;;;2.58;;
78013;SDS011;67222;50.182;8.734;2023-04-25T09:31:05;7.60;;;3.65;;
78013;SDS011;67222;50.182;8.734;2023-04-25T09:33:32;7.10;;;3.20;;
78013;SDS011;67222;50.182;8.734;2023-04-25T09:36:02;7.15;;;2.88;;
78013;SDS011;67222;50.182;8.734;2023-04-25T09:38:29;7.93;;;3.10;;
78013;SDS011;67222;50.182;8.734;2023-04-25T09:40:56;5.68;;;2.72;;
78013;SDS011;67222;50.182;8.734;2023-04-25T09:43:22;5.25;;;3.03;;
78013;SDS011;67222;50.182;8.734;2023-04-25T09:45:49;8.30;;;3.28;;
78013;SDS011;67222;50.182;8.734;2023-04-25T09:48:17;7.53;;;2.90;;
78013;SDS011;67222;50.182;8.734;2023-04-25T09:50:43;5.35;;;2.75;;
78013;SDS011;67222;50.182;8.734;2023-04-25T09:53:09;5.25;;;2.20;;
78013;SDS011;67222;50.182;8.734;2023-04-25T09:55:35;5.60;;;2.38;;
78013;SDS011;67222;50.182;8.734;2023-04-25T09:58:03;6.68;;;3.60;;
78013;SDS011;67222;50.182;8.734;2023-04-25T10:00:33;4.30;;;2.45;;
78013;SDS011;67222;50.182;8.734;2023-04-25T10:03:03;5.80;;;2.80;;
78013;SDS011;67222;50.182;8.734;2023-04-25T10:05:32;5.93;;;2.67;;
78013;SDS011;67222;50.182;8.734;2023-04-25T10:08:00;9.57;;;4.63;;
78013;SDS011;67222;50.182;8.734;2023-04-25T10:10:28;6.53;;;3.20;;
78013;SDS011;67222;50.182;8.734;2023-04-25T10:12:57;8.75;;;3.83;;
78013;SDS011;67222;50.182;8.734;2023-04-25T10:15:23;5.13;;;2.40;;
78013;SDS011;67222;50.182;8.734;2023-04-25T10:17:49;7.05;;;2.67;;
78013;SDS011;67222;50.182;8.734;2023-04-25T10:20:15;10.63;;;4.28;;
78013;SDS011;67222;50.182;8.734;2023-04-25T10:22:44;6.67;;;3.90;;
78013;SDS011;67222;50.182;8.734;2023-04-25T10:25:11;6.60;;;3.30;;
78013;SDS011;67222;50.182;8.734;2023-04-25T10:27:38;7.78;;;2.80;;
78013;SDS011;67222;50.182;8.734;2023-04-25T10:30:08;6.55;;;3.33;;
78013;SDS011;67222;50.182;8.734;2023-04-25T10:32:41;7.53;;;3.85;;
78013;SDS011;67222;50.182;8.734;2023-04-25T10:40:23;3.90;;;2.25;;
78013;SDS011;67222;50.182;8.734;2023-04-25T10:42:51;5.20;;;2.30;;
78013;SDS011;67222;50.182;8.734;2023-04-25T10:45:17;4.18;;;2.00;;
78013;SDS011;67222;50.182;8.734;2023-04-25T10:47:45;4.45;;;2.15;;
78013;SDS011;67222;50.182;8.734;2023-04-25T10:50:10;4.15;;;2.13;;
78013;SDS011;67222;50.182;8.734;2023-04-25T10:52:38;4.47;;;2.10;;
78013;SDS011;67222;50.182;8.734;2023-04-25T10:55:04;4.00;;;2.40;;
78013;SDS011;67222;50.182;8.734;2023-04-25T11:02:41;5.85;;;2.22;;
78013;SDS011;67222;50.182;8.734;2023-04-25T11:07:52;5.60;;;2.30;;
78013;SDS011;67222;50.182;8.734;2023-04-25T11:10:19;2.95;;;1.60;;
78013;SDS011;67222;50.182;8.734;2023-04-25T11:12:45;6.10;;;2.00;;
78013;SDS011;67222;50.182;8.734;2023-04-25T11:15:12;4.82;;;1.70;;
78013;SDS011;67222;50.182;8.734;2023-04-25T11:17:38;2.90;;;1.50;;
78013;SDS011;67222;50.182;8.734;2023-04-25T11:20:05;2.78;;;1.60;;
78013;SDS011;67222;50.182;8.734;2023-04-25T11:22:33;3.50;;;1.40;;
78013;SDS011;67222;50.182;8.734;2023-04-25T11:25:04;4.00;;;1.58;;
78013;SDS011;67222;50.182;8.734;2023-04-25T11:27:29;3.08;;;1.58;;
78013;SDS011;67222;50.182;8.734;2023-04-25T11:29:55;4.07;;;1.80;;
78013;SDS011;67222;50.182;8.734;2023-04-25T11:32:20;7.63;;;2.00;;
78013;SDS011;67222;50.182;8.734;2023-04-25T11:34:46;4.67;;;1.50;;
78013;SDS011;67222;50.182;8.734;2023-04-25T11:37:11;3.53;;;1.70;;
78013;SDS011;67222;50.182;8.734;2023-04-25T11:39:37;4.40;;;1.50;;
78013;SDS011;67222;50.182;8.734;2023-04-25T11:42:03;5.18;;;1.70;;
78013;SDS011;67222;50.182;8.734;2023-04-25T11:44:29;4.03;;;1.67;;
78013;SDS011;67222;50.182;8.734;2023-04-25T11:46:54;6.68;;;2.22;;
78013;SDS011;67222;50.182;8.734;2023-04-25T11:49:20;3.65;;;2.05;;
78013;SDS011;67222;50.182;8.734;2023-04-25T11:51:47;3.42;;;1.80;;
78013;SDS011;67222;50.182;8.734;2023-04-25T11:54:13;3.97;;;1.50;;
78013;SDS011;67222;50.182;8.734;2023-04-25T11:56:45;3.88;;;1.80;;
78013;SDS011;67222;50.182;8.734;2023-04-25T11:59:11;3.83;;;1.48;;
78013;SDS011;67222;50.182;8.734;2023-04-25T12:01:37;5.93;;;1.70;;
78013;SDS011;67222;50.182;8.734;2023-04-25T12:04:11;3.63;;;1.27;;
78013;SDS011;67222;50.182;8.734;2023-04-25T12:06:38;3.03;;;1.75;;
78013;SDS011;67222;50.182;8.734;2023-04-25T12:09:06;4.95;;;1.88;;
78013;SDS011;67222;50.182;8.734;2023-04-25T12:11:40;2.97;;;1.58;;
78013;SDS011;67222;50.182;8.734;2023-04-25T12:14:10;4.65;;;1.67;;
78013;SDS011;67222;50.182;8.734;2023-04-25T12:16:45;4.72;;;1.75;;
78013;SDS011;67222;50.182;8.734;2023-04-25T12:19:15;4.68;;;1.90;;
78013;SDS011;67222;50.182;8.734;2023-04-25T12:21:41;2.78;;;1.60;;
78013;SDS011;67222;50.182;8.734;2023-04-25T12:24:10;5.15;;;2.00;;
78013;SDS011;67222;50.182;8.734;2023-04-25T12:26:54;5.35;;;2.10;;
78013;SDS011;67222;50.182;8.734;2023-04-25T12:29:27;3.97;;;1.70;;
78013;SDS011;67222;50.182;8.734;2023-04-25T12:31:54;5.05;;;2.55;;
78013;SDS011;67222;50.182;8.734;2023-04-25T12:34:20;6.68;;;1.88;;
78013;SDS011;67222;50.182;8.734;2023-04-25T12:36:47;5.60;;;2.00;;
78013;SDS011;67222;50.182;8.734;2023-04-25T12:39:17;4.15;;;2.10;;
78013;SDS011;67222;50.182;8.734;2023-04-25T12:41:44;5.18;;;2.20;;
78013;SDS011;67222;50.182;8.734;2023-04-25T12:44:10;4.13;;;2.10;;
78013;SDS011;67222;50.182;8.734;2023-04-25T12:46:36;4.28;;;1.90;;
78013;SDS011;67222;50.182;8.734;2023-04-25T12:49:02;5.15;;;2.13;;
78013;SDS011;67222;50.182;8.734;2023-04-25T12:51:28;4.88;;;2.13;;
78013;SDS011;67222;50.182;8.734;2023-04-25T12:53:54;4.85;;;1.73;;
78013;SDS011;67222;50.182;8.734;2023-04-25T12:56:19;4.30;;;1.73;;
78013;SDS011;67222;50.182;8.734;2023-04-25T12:58:44;4.35;;;1.92;;
78013;SDS011;67222;50.182;8.734;2023-04-25T13:01:10;5.03;;;1.85;;
78013;SDS011;67222;50.182;8.734;2023-04-25T13:03:37;4.70;;;2.00;;
78013;SDS011;67222;50.182;8.734;2023-04-25T13:06:02;4.18;;;1.85;;
78013;SDS011;67222;50.182;8.734;2023-04-25T13:08:28;4.60;;;2.10;;
78013;SDS011;67222;50.182;8.734;2023-04-25T13:10:53;7.00;;;2.10;;
78013;SDS011;67222;50.182;8.734;2023-04-25T13:13:18;7.13;;;2.70;;
78013;SDS011;67222;50.182;8.734;2023-04-25T13:15:44;5.63;;;2.07;;
78013;SDS011;67222;50.182;8.734;2023-04-25T13:18:09;3.60;;;1.67;;
78013;SDS011;67222;50.182;8.734;2023-04-25T13:20:34;5.17;;;1.73;;
78013;SDS011;67222;50.182;8.734;2023-04-25T13:23:00;6.43;;;2.25;;
78013;SDS011;67222;50.182;8.734;2023-04-25T13:25:25;5.63;;;1.87;;
78013;SDS011;67222;50.182;8.734;2023-04-25T13:27:51;5.75;;;2.13;;
78013;SDS011;67222;50.182;8.734;2023-04-25T13:30:16;4.57;;;1.90;;
78013;SDS011;67222;50.182;8.734;2023-04-25T13:32:41;4.37;;;2.33;;
78013;SDS011;67222;50.182;8.734;2023-04-25T13:35:07;7.18;;;2.22;;
78013;SDS011;67222;50.182;8.734;2023-04-25T13:37:35;4.40;;;2.00;;
78013;SDS011;67222;50.182;8.734;2023-04-25T13:40:07;6.65;;;2.30;;
78013;SDS011;67222;50.182;8.734;2023-04-25T13:42:35;4.18;;;1.65;;
78013;SDS011;67222;50.182;8.734;2023-04-25T13:45:01;6.13;;;2.60;;
78013;SDS011;67222;50.182;8.734;2023-04-25T13:47:26;6.38;;;2.10;;
78013;SDS011;67222;50.182;8.734;2023-04-25T13:49:52;4.75;;;1.85;;
78013;SDS011;67222;50.182;8.734;2023-04-25T13:52:18;3.30;;;2.15;;
78013;SDS011;67222;50.182;8.734;2023-04-25T13:54:43;4.95;;;2.08;;
78013;SDS011;67222;50.182;8.734;2023-04-25T13:57:09;5.03;;;2.25;;
78013;SDS011;67222;50.182;8.734;2023-04-25T13:59:36;7.93;;;2.58;;
78013;SDS011;67222;50.182;8.734;2023-04-25T14:02:01;5.80;;;2.85;;
78013;SDS011;67222;50.182;8.734;2023-04-25T14:04:27;7.27;;;2.17;;
78013;SDS011;67222;50.182;8.734;2023-04-25T14:06:52;4.80;;;2.05;;
78013;SDS011;67222;50.182;8.734;2023-04-25T14:09:18;4.40;;;1.83;;
78013;SDS011;67222;50.182;8.734;2023-04-25T14:11:45;5.05;;;2.00;;
78013;SDS011;67222;50.182;8.734;2023-04-25T14:14:11;4.93;;;2.03;;
78013;SDS011;67222;50.182;8.734;2023-04-25T14:16:37;4.38;;;1.60;;
78013;SDS011;67222;50.182;8.734;2023-04-25T14:19:02;4.78;;;1.95;;
78013;SDS011;67222;50.182;8.734;2023-04-25T14:21:28;4.60;;;1.50;;
78013;SDS011;67222;50.182;8.734;2023-04-25T14:23:54;4.80;;;1.70;;
78013;SDS011;67222;50.182;8.734;2023-04-25T14:26:19;5.22;;;1.60;;
78013;SDS011;67222;50.182;8.734;2023-04-25T14:28:45;6.18;;;1.60;;
78013;SDS011;67222;50.182;8.734;2023-04-25T14:31:10;4.32;;;1.48;;
78013;SDS011;67222;50.182;8.734;2023-04-25T14:33:36;4.63;;;1.52;;
78013;SDS011;67222;50.182;8.734;2023-04-25T14:36:04;3.22;;;1.30;;
78013;SDS011;67222;50.182;8.734;2023-04-25T14:38:30;3.10;;;1.40;;
78013;SDS011;67222;50.182;8.734;2023-04-25T14:40:55;4.80;;;1.40;;
78013;SDS011;67222;50.182;8.734;2023-04-25T14:43:20;4.13;;;1.40;;
78013;SDS011;67222;50.182;8.734;2023-04-25T14:45:45;4.67;;;1.60;;
78013;SDS011;67222;50.182;8.734;2023-04-25T14:48:11;4.33;;;1.60;;
78013;SDS011;67222;50.182;8.734;2023-04-25T14:50:36;3.20;;;1.38;;
78013;SDS011;67222;50.182;8.734;2023-04-25T14:53:02;4.50;;;1.52;;
78013;SDS011;67222;50.182;8.734;2023-04-25T14:55:27;4.72;;;1.58;;
78013;SDS011;67222;50.182;8.734;2023-04-25T14:57:55;3.70;;;1.40;;
78013;SDS011;67222;50.182;8.734;2023-04-25T15:00:21;2.60;;;1.50;;
78013;SDS011;67222;50.182;8.734;2023-04-25T15:02:50;3.78;;;1.50;;
78013;SDS011;67222;50.182;8.734;2023-04-25T15:05:16;3.67;;;1.58;;
78013;SDS011;67222;50.182;8.734;2023-04-25T15:07:41;2.88;;;1.58;;
78013;SDS011;67222;50.182;8.734;2023-04-25T15:10:07;4.67;;;1.50;;
78013;SDS011;67222;50.182;8.734;2023-04-25T15:12:38;3.28;;;1.80;;
78013;SDS011;67222;50.182;8.734;2023-04-25T15:15:04;5.30;;;1.63;;
78013;SDS011;67222;50.182;8.734;2023-04-25T15:17:31;2.65;;;1.30;;
78013;SDS011;67222;50.182;8.734;2023-04-25T15:19:56;4.27;;;1.37;;
78013;SDS011;67222;50.182;8.734;2023-04-25T15:22:22;2.90;;;1.20;;
78013;SDS011;67222;50.182;8.734;2023-04-25T15:24:47;3.17;;;1.02;;
78013;SDS011;67222;50.182;8.734;2023-04-25T15:27:13;3.08;;;1.30;;
78013;SDS011;67222;50.182;8.734;2023-04-25T15:29:38;3.05;;;1.27;;
78013;SDS011;67222;50.182;8.734;2023-04-25T15:32:05;3.58;;;1.20;;
78013;SDS011;67222;50.182;8.734;2023-04-25T15:34:30;2.83;;;1.33;;
78013;SDS011;67222;50.182;8.734;2023-04-25T15:36:55;3.43;;;1.23;;
78013;SDS011;67222;50.182;8.734;2023-04-25T15:39:22;5.90;;;1.42;;
78013;SDS011;67222;50.182;8.734;2023-04-25T15:41:47;5.18;;;1.38;;
78013;SDS011;67222;50.182;8.734;2023-04-25T15:44:13;2.87;;;1.10;;
78013;SDS011;67222;50.182;8.734;2023-04-25T15:46:38;6.20;;;3.03;;
78013;SDS011;67222;50.182;8.734;2023-04-25T15:49:04;5.90;;;2.58;;
78013;SDS011;67222;50.182;8.734;2023-04-25T15:51:29;4.60;;;2.27;;
78013;SDS011;67222;50.182;8.734;2023-04-25T15:53:54;3.40;;;2.20;;
78013;SDS011;67222;50.182;8.734;2023-04-25T15:56:20;3.42;;;1.17;;
78013;SDS011;67222;50.182;8.734;2023-04-25T15:58:46;3.03;;;1.52;;
78013;SDS011;67222;50.182;8.734;2023-04-25T16:01:11;5.28;;;1.50;;
78013;SDS011;67222;50.182;8.734;2023-04-25T16:03:37;3.05;;;1.20;;
78013;SDS011;67222;50.182;8.734;2023-04-25T16:06:03;3.60;;;1.30;;
78013;SDS011;67222;50.182;8.734;2023-04-25T16:08:29;3.30;;;1.50;;
78013;SDS011;67222;50.182;8.734;2023-04-25T16:10:58;2.90;;;1.23;;
78013;SDS011;67222;50.182;8.734;2023-04-25T16:13:23;5.25;;;1.95;;
78013;SDS011;67222;50.182;8.734;2023-04-25T16:15:50;2.63;;;1.52;;
78013;SDS011;67222;50.182;8.734;2023-04-25T16:18:16;4.82;;;1.40;;
78013;SDS011;67222;50.182;8.734;2023-04-25T16:20:41;5.50;;;1.48;;
78013;SDS011;67222;50.182;8.734;2023-04-25T16:23:07;2.10;;;1.27;;
78013;SDS011;67222;50.182;8.734;2023-04-25T16:25:33;4.38;;;1.55;;
78013;SDS011;67222;50.182;8.734;2023-04-25T16:27:58;5.97;;;1.58;;
78013;SDS011;67222;50.182;8.734;2023-04-25T16:30:24;2.43;;;1.33;;
78013;SDS011;67222;50.182;8.734;2023-04-25T16:32:49;2.88;;;1.10;;
78013;SDS011;67222;50.182;8.734;2023-04-25T16:35:14;4.00;;;1.40;;
78013;SDS011;67222;50.182;8.734;2023-04-25T16:37:40;3.15;;;1.45;;
78013;SDS011;67222;50.182;8.734;2023-04-25T16:40:05;4.27;;;1.50;;
78013;SDS011;67222;50.182;8.734;2023-04-25T16:42:33;6.82;;;1.60;;
78013;SDS011;67222;50.182;8.734;2023-04-25T16:44:59;2.85;;;1.25;;
78013;SDS011;67222;50.182;8.734;2023-04-25T16:47:24;3.83;;;1.40;;
78013;SDS011;67222;50.182;8.734;2023-04-25T16:49:49;3.83;;;1.38;;
78013;SDS011;67222;50.182;8.734;2023-04-25T16:52:15;2.73;;;1.23;;
78013;SDS011;67222;50.182;8.734;2023-04-25T16:54:40;4.23;;;1.17;;
78013;SDS011;67222;50.182;8.734;2023-04-25T16:57:05;3.97;;;1.30;;
78013;SDS011;67222;50.182;8.734;2023-04-25T16:59:34;3.80;;;1.27;;
78013;SDS011;67222;50.182;8.734;2023-04-25T17:02:00;5.40;;;2.05;;
78013;SDS011;67222;50.182;8.734;2023-04-25T17:04:26;2.13;;;0.93;;
78013;SDS011;67222;50.182;8.734;2023-04-25T17:06:52;3.95;;;1.40;;
78013;SDS011;67222;50.182;8.734;2023-04-25T17:09:17;3.08;;;0.98;;
78013;SDS011;67222;50.182;8.734;2023-04-25T17:11:43;3.90;;;1.33;;
78013;SDS011;67222;50.182;8.734;2023-04-25T17:14:08;4.27;;;1.17;;
78013;SDS011;67222;50.182;8.734;2023-04-25T17:16:37;2.77;;;1.20;;
78013;SDS011;67222;50.182;8.734;2023-04-25T17:19:03;3.40;;;1.45;;
78013;SDS011;67222;50.182;8.734;2023-04-25T17:21:29;4.13;;;1.60;;
78013;SDS011;67222;50.182;8.734;2023-04-25T17:23:55;4.85;;;1.33;;
78013;SDS011;67222;50.182;8.734;2023-04-25T17:26:22;3.33;;;1.23;;
78013;SDS011;67222;50.182;8.734;2023-04-25T17:28:47;4.63;;;1.60;;
78013;SDS011;67222;50.182;8.734;2023-04-25T17:31:14;4.47;;;1.20;;
78013;SDS011;67222;50.182;8.734;2023-04-25T17:33:40;5.22;;;1.33;;
78013;SDS011;67222;50.182;8.734;2023-04-25T17:36:05;3.60;;;1.47;;
78013;SDS011;67222;50.182;8.734;2023-04-25T17:38:31;2.65;;;1.17;;
78013;SDS011;67222;50.182;8.734;2023-04-25T17:40:57;3.95;;;1.65;;
78013;SDS011;67222;50.182;8.734;2023-04-25T17:43:23;2.55;;;0.90;;
78013;SDS011;67222;50.182;8.734;2023-04-25T17:45:48;3.22;;;1.20;;
78013;SDS011;67222;50.182;8.734;2023-04-25T17:48:13;3.57;;;1.17;;
78013;SDS011;67222;50.182;8.734;2023-04-25T17:50:39;1.83;;;0.97;;
78013;SDS011;67222;50.182;8.734;2023-04-25T17:53:04;5.00;;;1.10;;
78013;SDS011;67222;50.182;8.734;2023-04-25T17:55:29;2.60;;;1.10;;
78013;SDS011;67222;50.182;8.734;2023-04-25T17:57:55;6.60;;;1.55;;
78013;SDS011;67222;50.182;8.734;2023-04-25T18:00:20;4.65;;;1.30;;
78013;SDS011;67222;50.182;8.734;2023-04-25T18:02:46;3.38;;;1.20;;
78013;SDS011;67222;50.182;8.734;2023-04-25T18:05:12;3.58;;;1.15;;
78013;SDS011;67222;50.182;8.734;2023-04-25T18:07:39;3.45;;;1.23;;
78013;SDS011;67222;50.182;8.734;2023-04-25T18:10:05;2.78;;;1.15;;
78013;SDS011;67222;50.182;8.734;2023-04-25T18:12:32;4.90;;;1.60;;
78013;SDS011;67222;50.182;8.734;2023-04-25T18:14:58;4.50;;;1.38;;
78013;SDS011;67222;50.182;8.734;2023-04-25T18:17:23;4.35;;;1.90;;
78013;SDS011;67222;50.182;8.734;2023-04-25T18:19:49;4.85;;;1.60;;
78013;SDS011;67222;50.182;8.734;2023-04-25T18:22:15;2.80;;;1.30;;
78013;SDS011;67222;50.182;8.734;2023-04-25T18:24:41;3.38;;;1.10;;
78013;SDS011;67222;50.182;8.734;2023-04-25T18:27:09;5.25;;;1.20;;
78013;SDS011;67222;50.182;8.734;2023-04-25T18:29:35;3.70;;;1.30;;
78013;SDS011;67222;50.182;8.734;2023-04-25T18:32:01;2.85;;;1.13;;
78013;SDS011;67222;50.182;8.734;2023-04-25T18:34:28;3.72;;;1.00;;
78013;SDS011;67222;50.182;8.734;2023-04-25T18:36:53;4.53;;;1.33;;
78013;SDS011;67222;50.182;8.734;2023-04-25T18:39:20;3.55;;;1.33;;
78013;SDS011;67222;50.182;8.734;2023-04-25T18:41:45;6.13;;;1.20;;
78013;SDS011;67222;50.182;8.734;2023-04-25T18:44:11;3.03;;;1.20;;
78013;SDS011;67222;50.182;8.734;2023-04-25T18:46:37;3.33;;;1.30;;
78013;SDS011;67222;50.182;8.734;2023-04-25T18:49:04;3.22;;;1.10;;
78013;SDS011;67222;50.182;8.734;2023-04-25T18:51:29;2.10;;;1.07;;
78013;SDS011;67222;50.182;8.734;2023-04-25T18:53:56;3.13;;;1.20;;
78013;SDS011;67222;50.182;8.734;2023-04-25T18:56:22;4.93;;;1.35;;
78013;SDS011;67222;50.182;8.734;2023-04-25T18:58:49;3.08;;;1.40;;
78013;SDS011;67222;50.182;8.734;2023-04-25T19:01:15;4.15;;;1.10;;
78013;SDS011;67222;50.182;8.734;2023-04-25T19:03:42;3.15;;;1.25;;
78013;SDS011;67222;50.182;8.734;2023-04-25T19:06:07;2.53;;;1.20;;
78013;SDS011;67222;50.182;8.734;2023-04-25T19:08:32;4.17;;;1.60;;
78013;SDS011;67222;50.182;8.734;2023-04-25T19:10:57;3.63;;;1.07;;
78013;SDS011;67222;50.182;8.734;2023-04-25T19:13:24;3.85;;;1.20;;
78013;SDS011;67222;50.182;8.734;2023-04-25T19:15:52;3.80;;;1.20;;
78013;SDS011;67222;50.182;8.734;2023-04-25T19:18:17;3.73;;;1.40;;
78013;SDS011;67222;50.182;8.734;2023-04-25T19:20:42;3.50;;;1.43;;
78013;SDS011;67222;50.182;8.734;2023-04-25T19:23:08;4.27;;;1.50;;
78013;SDS011;67222;50.182;8.734;2023-04-25T19:25:34;3.17;;;1.40;;
78013;SDS011;67222;50.182;8.734;2023-04-25T19:28:00;3.40;;;1.35;;